Time;durP1;ratioP1;P1;durP2;ratioP2;P2;SDS_P1;SDS_P2;PMS_P1;PMS_P2;Temp;Humidity;BMP_temperature;BMP_pressure;BME280_temperature;BME280_humidity;BME280_pressure;Samples;Min_cycle;Max_cycle;Signal;HPM_P1;HPM_P2
2023/08/23 00:02:01;;;;;;;7.00;5.30;;;15.50;99.90;;;;;;7369647;19;20022;-63
2023/08/23 00:04:34;;;;;;;6.38;5.25;;;15.40;99.90;;;;;;7369979;19;20589;-63
2023/08/23 00:07:01;;;;;;;7.43;4.85;;;15.40;99.90;;;;;;7370818;19;20105;-65
2023/08/23 00:09:28;;;;;;;9.68;5.10;;;15.30;99.90;;;;;;7371403;19;20022;-64
2023/08/23 00:11:54;;;;;;;17.27;6.28;;;15.10;99.90;;;;;;7368783;19;20096;-64
2023/08/23 00:14:20;;;;;;;12.38;6.70;;;15.00;99.90;;;;;;7373331;19;20534;-65
2023/08/23 00:16:46;;;;;;;11.48;6.20;;;14.90;99.90;;;;;;7373590;19;20038;-64
2023/08/23 00:19:12;;;;;;;6.97;5.88;;;14.80;99.90;;;;;;7371547;19;20018;-64
2023/08/23 00:21:39;;;;;;;5.78;4.97;;;14.70;99.90;;;;;;7372617;19;20022;-64
2023/08/23 00:24:05;;;;;;;4.80;4.10;;;14.80;99.90;;;;;;7373040;19;20030;-65
2023/08/23 00:26:32;;;;;;;6.03;5.10;;;14.70;99.90;;;;;;7369676;19;20382;-64
2023/08/23 00:28:58;;;;;;;15.05;7.55;;;14.70;99.90;;;;;;7372873;19;20018;-65
2023/08/23 00:31:24;;;;;;;16.90;7.88;;;14.70;99.90;;;;;;7363212;19;20105;-65
2023/08/23 00:33:50;;;;;;;28.83;8.80;;;14.70;99.90;;;;;;7366106;19;20033;-65
2023/08/23 00:36:16;;;;;;;54.75;10.55;;;14.60;99.90;;;;;;7376182;19;20407;-65
2023/08/23 00:38:43;;;;;;;33.53;8.77;;;14.70;99.90;;;;;;7369784;19;20014;-64
2023/08/23 00:41:09;;;;;;;9.93;7.70;;;14.60;99.90;;;;;;7375120;19;20090;-65
2023/08/23 00:43:35;;;;;;;10.80;8.13;;;14.60;99.90;;;;;;7368720;19;20022;-65
2023/08/23 00:46:02;;;;;;;8.50;7.60;;;14.70;99.90;;;;;;7360910;19;20019;-65
2023/08/23 00:48:29;;;;;;;8.82;7.85;;;14.70;99.90;;;;;;7369662;19;20719;-65
2023/08/23 00:50:58;;;;;;;8.25;7.45;;;14.80;99.90;;;;;;7371204;19;20030;-64
2023/08/23 00:53:28;;;;;;;8.43;7.47;;;14.80;99.90;;;;;;7367865;19;20117;-65
2023/08/23 00:55:56;;;;;;;8.23;7.40;;;14.80;99.90;;;;;;7370068;19;21056;-65
2023/08/23 00:58:22;;;;;;;7.15;6.45;;;14.80;99.90;;;;;;7367543;19;20018;-65
2023/08/23 01:00:50;;;;;;;8.43;6.90;;;14.70;99.90;;;;;;7369569;19;20616;-64
2023/08/23 01:03:16;;;;;;;7.63;6.82;;;14.70;99.90;;;;;;7370166;19;20022;-64
2023/08/23 01:06:00;;;;;;;8.85;7.25;;;14.60;99.90;;;;;;7363221;19;20023;-64
2023/08/23 01:08:42;;;;;;;16.27;6.97;;;14.60;99.90;;;;;;7368840;19;20021;-64
2023/08/23 01:11:19;;;;;;;32.25;9.05;;;14.50;99.90;;;;;;7371306;19;20022;-65
2023/08/23 01:13:55;;;;;;;12.57;8.48;;;14.50;99.90;;;;;;7370390;19;20021;-64
2023/08/23 01:16:22;;;;;;;8.05;7.15;;;14.50;99.90;;;;;;7373709;19;20453;-64
2023/08/23 01:18:50;;;;;;;11.35;7.82;;;14.50;99.90;;;;;;7370479;19;20457;-64
2023/08/23 01:21:23;;;;;;;66.70;11.93;;;14.60;99.90;;;;;;7369592;19;20427;-64
2023/08/23 01:23:50;;;;;;;20.65;10.88;;;14.60;99.90;;;;;;7365319;19;20723;-65
2023/08/23 01:26:16;;;;;;;46.38;13.35;;;14.60;99.90;;;;;;7370707;19;20014;-64
2023/08/23 01:28:42;;;;;;;38.03;13.50;;;14.60;99.90;;;;;;7369359;19;20025;-64
2023/08/23 01:31:11;;;;;;;18.63;12.10;;;14.70;99.90;;;;;;7367866;19;20744;-64
2023/08/23 01:33:46;;;;;;;28.55;13.30;;;14.60;99.90;;;;;;7369638;19;20506;-65
2023/08/23 01:36:25;;;;;;;16.48;12.27;;;14.70;99.90;;;;;;7373207;19;20441;-64
2023/08/23 01:38:54;;;;;;;15.40;12.05;;;14.60;99.90;;;;;;7369548;19;20018;-64
2023/08/23 01:41:21;;;;;;;11.15;9.52;;;14.70;99.90;;;;;;7372065;19;20056;-64
2023/08/23 01:43:47;;;;;;;9.70;8.73;;;14.70;99.90;;;;;;7368467;19;20073;-64
2023/08/23 01:46:14;;;;;;;13.77;8.25;;;14.60;99.90;;;;;;7371682;19;20018;-63
2023/08/23 01:48:40;;;;;;;25.75;10.73;;;14.70;99.90;;;;;;7370663;19;20531;-64
2023/08/23 01:51:06;;;;;;;9.63;8.65;;;14.60;99.90;;;;;;7369413;19;20018;-65
2023/08/23 01:53:33;;;;;;;10.30;9.30;;;14.60;99.90;;;;;;7368208;19;20098;-64
2023/08/23 01:56:00;;;;;;;10.30;9.30;;;14.50;99.90;;;;;;7368135;19;20026;-64
2023/08/23 01:58:27;;;;;;;9.85;8.90;;;14.60;99.90;;;;;;7368095;19;20026;-64
2023/08/23 02:00:53;;;;;;;9.55;8.65;;;14.60;99.90;;;;;;7360735;19;20471;-64
2023/08/23 02:03:20;;;;;;;11.70;8.60;;;14.60;99.90;;;;;;7369900;19;20022;-63
2023/08/23 02:05:47;;;;;;;9.10;8.20;;;14.60;99.90;;;;;;7367804;19;20502;-62
2023/08/23 02:08:15;;;;;;;9.48;8.23;;;14.60;99.90;;;;;;7365683;19;20014;-64
2023/08/23 02:10:42;;;;;;;7.78;7.03;;;14.60;99.90;;;;;;7371476;19;20025;-64
2023/08/23 02:13:08;;;;;;;8.15;7.22;;;14.50;99.90;;;;;;7365420;19;20541;-64
2023/08/23 02:15:35;;;;;;;7.43;6.72;;;14.40;99.90;;;;;;7369924;19;20045;-64
2023/08/23 02:18:01;;;;;;;7.95;6.90;;;14.40;99.90;;;;;;7367532;19;20705;-64
2023/08/23 02:20:30;;;;;;;8.35;7.55;;;14.30;99.90;;;;;;7368639;19;20023;-64
2023/08/23 02:22:56;;;;;;;8.88;8.10;;;14.30;99.90;;;;;;7370017;19;20031;-63
2023/08/23 02:25:22;;;;;;;10.35;8.55;;;14.30;99.90;;;;;;7369834;19;20015;-63
2023/08/23 02:27:48;;;;;;;9.57;8.68;;;14.30;99.90;;;;;;7364270;19;20018;-63
2023/08/23 02:30:15;;;;;;;9.48;8.20;;;14.30;99.90;;;;;;7367675;19;20014;-63
2023/08/23 02:32:41;;;;;;;19.05;8.60;;;14.30;99.90;;;;;;7367918;19;20400;-63
2023/08/23 02:35:08;;;;;;;47.47;10.57;;;14.30;99.90;;;;;;7375073;19;20026;-64
2023/08/23 02:37:35;;;;;;;29.10;10.82;;;14.30;99.90;;;;;;7374276;19;20102;-64
2023/08/23 02:40:03;;;;;;;20.77;9.57;;;14.20;99.90;;;;;;7370554;19;20380;-64
2023/08/23 02:42:30;;;;;;;44.38;10.52;;;14.20;99.90;;;;;;7378421;19;20018;-64
2023/08/23 02:44:56;;;;;;;44.28;9.70;;;14.20;99.90;;;;;;7369890;19;20026;-63
2023/08/23 02:47:22;;;;;;;29.17;8.60;;;14.20;99.90;;;;;;7373274;19;20030;-65
2023/08/23 02:49:49;;;;;;;15.82;9.30;;;14.20;99.90;;;;;;7377916;19;20019;-64
2023/08/23 02:52:15;;;;;;;19.50;8.90;;;14.20;99.90;;;;;;7374276;19;20018;-63
2023/08/23 02:54:42;;;;;;;17.60;10.15;;;14.20;99.90;;;;;;7374434;19;20014;-63
2023/08/23 02:57:08;;;;;;;20.88;9.93;;;14.10;99.90;;;;;;7373770;19;20030;-63
2023/08/23 02:59:34;;;;;;;12.40;8.20;;;14.20;99.90;;;;;;7374663;19;20390;-63
2023/08/23 03:02:01;;;;;;;23.85;9.77;;;14.10;99.90;;;;;;7375774;19;20018;-63
2023/08/23 03:04:27;;;;;;;11.95;10.77;;;14.10;99.90;;;;;;7372921;19;20493;-63
2023/08/23 03:06:53;;;;;;;41.28;11.85;;;14.10;99.90;;;;;;7375902;19;20033;-63
2023/08/23 03:09:19;;;;;;;51.95;12.18;;;14.10;99.90;;;;;;7372163;19;20612;-62
2023/08/23 03:11:46;;;;;;;55.88;13.88;;;14.10;99.90;;;;;;7374905;19;20014;-63
2023/08/23 03:14:12;;;;;;;42.63;10.50;;;14.20;99.90;;;;;;7374552;19;20007;-65
2023/08/23 03:16:38;;;;;;;75.90;14.43;;;14.20;99.90;;;;;;7375615;19;20045;-63
2023/08/23 03:19:05;;;;;;;67.63;12.13;;;14.30;99.90;;;;;;7369984;19;20030;-63
2023/08/23 03:21:31;;;;;;;58.78;11.48;;;14.30;99.90;;;;;;7375799;19;20087;-63
2023/08/23 03:23:57;;;;;;;45.83;10.85;;;14.30;99.90;;;;;;7372120;19;20044;-63
2023/08/23 03:26:24;;;;;;;31.20;10.27;;;14.30;99.90;;;;;;7372858;19;20018;-63
2023/08/23 03:28:51;;;;;;;26.38;10.15;;;14.30;99.90;;;;;;7375828;19;20491;-63
2023/08/23 03:31:17;;;;;;;30.30;9.50;;;14.30;99.90;;;;;;7369797;19;20019;-64
2023/08/23 03:33:45;;;;;;;26.25;9.65;;;14.30;99.90;;;;;;7373275;19;20314;-64
2023/08/23 03:36:11;;;;;;;20.70;8.45;;;14.20;99.90;;;;;;7370541;19;20042;-64
2023/08/23 03:38:38;;;;;;;20.55;10.65;;;14.20;99.90;;;;;;7372704;19;20552;-64
2023/08/23 03:41:11;;;;;;;28.70;10.80;;;14.20;99.90;;;;;;7373326;19;20029;-64
2023/08/23 03:43:39;;;;;;;29.40;10.18;;;14.20;99.90;;;;;;7375369;19;20025;-64
2023/08/23 03:46:05;;;;;;;20.88;9.23;;;14.10;99.90;;;;;;7367837;19;20482;-64
2023/08/23 03:48:31;;;;;;;43.53;9.93;;;14.10;99.90;;;;;;7375554;19;20453;-64
2023/08/23 03:50:59;;;;;;;30.00;11.25;;;14.10;99.90;;;;;;7372450;19;20021;-63
2023/08/23 03:53:26;;;;;;;22.67;10.93;;;14.20;99.90;;;;;;7370820;19;20565;-64
2023/08/23 03:55:58;;;;;;;43.05;12.75;;;14.20;99.90;;;;;;7373197;19;20018;-63
2023/08/23 03:58:24;;;;;;;37.75;12.23;;;14.10;99.90;;;;;;7374434;19;20014;-64
2023/08/23 04:00:54;;;;;;;25.05;10.18;;;14.10;99.90;;;;;;7372783;19;20524;-64
2023/08/23 04:03:20;;;;;;;26.55;10.18;;;14.10;99.90;;;;;;7375500;19;20026;-63
2023/08/23 04:05:47;;;;;;;20.75;10.73;;;14.10;99.90;;;;;;7370028;19;20370;-64
2023/08/23 04:08:13;;;;;;;22.40;10.45;;;14.00;99.90;;;;;;7375625;19;20010;-64
2023/08/23 04:10:48;;;;;;;29.33;10.25;;;14.00;99.90;;;;;;7369844;19;20511;-64
2023/08/23 04:13:16;;;;;;;37.17;10.90;;;14.00;99.90;;;;;;7375641;19;20052;-64
2023/08/23 04:15:44;;;;;;;46.30;12.73;;;14.00;99.90;;;;;;7369297;19;20598;-64
2023/08/23 04:18:10;;;;;;;67.32;13.65;;;14.00;99.90;;;;;;7373543;19;20612;-64
2023/08/23 04:20:38;;;;;;;52.75;12.63;;;14.00;99.90;;;;;;7373879;19;20593;-64
2023/08/23 04:23:05;;;;;;;51.22;14.60;;;14.00;99.90;;;;;;7370008;19;20467;-65
2023/08/23 04:25:31;;;;;;;51.17;12.52;;;14.00;99.90;;;;;;7367547;19;20430;-64
2023/08/23 04:27:58;;;;;;;52.17;11.95;;;14.00;99.90;;;;;;7370743;19;20128;-63
2023/08/23 04:30:25;;;;;;;52.28;13.82;;;14.00;99.90;;;;;;7370526;19;20030;-63
2023/08/23 04:32:54;;;;;;;35.88;13.63;;;14.00;99.90;;;;;;7368487;19;20127;-61
2023/08/23 04:35:21;;;;;;;23.23;12.70;;;14.00;99.90;;;;;;7370175;19;20019;-65
2023/08/23 04:37:47;;;;;;;16.25;12.32;;;14.10;99.90;;;;;;7369460;19;20026;-66
2023/08/23 04:40:13;;;;;;;13.57;12.38;;;14.10;99.90;;;;;;7371174;19;20374;-66
2023/08/23 04:42:40;;;;;;;18.15;13.25;;;14.10;99.90;;;;;;7373261;19;20034;-66
2023/08/23 04:45:06;;;;;;;17.52;13.18;;;14.20;99.90;;;;;;7372300;19;20048;-65
2023/08/23 04:47:33;;;;;;;15.85;12.50;;;14.20;99.90;;;;;;7370351;19;20018;-65
2023/08/23 04:50:03;;;;;;;27.95;14.73;;;14.20;99.90;;;;;;7371079;19;20018;-61
2023/08/23 04:52:32;;;;;;;14.38;12.88;;;14.30;99.90;;;;;;7368921;19;20030;-62
2023/08/23 04:54:58;;;;;;;14.45;13.05;;;14.20;99.90;;;;;;7371146;19;20490;-62
2023/08/23 04:57:25;;;;;;;14.05;12.68;;;14.30;99.90;;;;;;7371265;19;20010;-62
2023/08/23 04:59:53;;;;;;;13.77;12.45;;;14.30;99.90;;;;;;7370546;19;20383;-61
2023/08/23 05:02:19;;;;;;;15.13;13.57;;;14.40;99.90;;;;;;7368979;19;20010;-62
2023/08/23 05:04:47;;;;;;;13.73;12.45;;;14.40;99.90;;;;;;7368758;19;20022;-67
2023/08/23 05:07:14;;;;;;;18.05;15.13;;;14.40;99.90;;;;;;7366263;19;20018;-67
2023/08/23 05:09:41;;;;;;;15.52;13.93;;;14.40;99.90;;;;;;7364217;19;20044;-67
2023/08/23 05:12:08;;;;;;;17.95;15.38;;;14.50;99.90;;;;;;7368104;19;20366;-66
2023/08/23 05:14:34;;;;;;;17.60;16.00;;;14.50;99.90;;;;;;7374892;19;20022;-66
2023/08/23 05:17:00;;;;;;;18.27;16.38;;;14.50;99.90;;;;;;7367762;19;20528;-66
2023/08/23 05:19:26;;;;;;;18.58;16.67;;;14.60;99.90;;;;;;7369151;19;20018;-67
2023/08/23 05:21:53;;;;;;;19.80;17.58;;;14.60;99.90;;;;;;7367498;19;20031;-67
2023/08/23 05:24:20;;;;;;;19.10;17.10;;;14.70;99.90;;;;;;7371416;19;20022;-67
2023/08/23 05:26:46;;;;;;;25.77;17.67;;;14.70;99.90;;;;;;7370280;19;20006;-67
2023/08/23 05:29:12;;;;;;;20.90;17.20;;;14.70;99.90;;;;;;7368402;19;20015;-67
2023/08/23 05:31:38;;;;;;;24.85;17.60;;;14.70;99.90;;;;;;7371703;19;20019;-67
2023/08/23 05:34:04;;;;;;;29.17;18.08;;;14.80;99.90;;;;;;7370428;19;20057;-67
2023/08/23 05:36:31;;;;;;;44.42;19.98;;;14.80;99.90;;;;;;7369210;19;20014;-68
2023/08/23 05:39:02;;;;;;;28.20;18.65;;;14.80;99.90;;;;;;7370136;19;20486;-67
2023/08/23 05:41:28;;;;;;;39.83;17.35;;;14.80;99.90;;;;;;7370138;19;20018;-66
2023/08/23 05:43:55;;;;;;;42.85;17.08;;;14.80;99.90;;;;;;7370689;19;20018;-62
2023/08/23 05:46:22;;;;;;;43.42;18.38;;;14.80;99.90;;;;;;7369017;19;20475;-61
2023/08/23 05:48:51;;;;;;;33.80;19.48;;;14.80;99.90;;;;;;7372379;19;20593;-61
2023/08/23 05:51:18;;;;;;;51.95;19.52;;;14.90;99.90;;;;;;7365200;19;20915;-63
2023/08/23 05:53:44;;;;;;;19.67;16.83;;;14.90;99.90;;;;;;7370177;19;20029;-60
2023/08/23 05:56:10;;;;;;;24.27;19.30;;;14.80;99.90;;;;;;7369849;19;20031;-67
2023/08/23 05:58:37;;;;;;;18.58;16.67;;;14.90;99.90;;;;;;7369978;19;20015;-67
2023/08/23 06:01:03;;;;;;;20.27;18.10;;;14.90;99.90;;;;;;7367136;19;20047;-67
2023/08/23 06:03:30;;;;;;;22.00;19.33;;;14.90;99.90;;;;;;7368910;19;20014;-67
2023/08/23 06:05:56;;;;;;;22.58;19.00;;;14.80;99.90;;;;;;7367459;19;20018;-61
2023/08/23 06:08:22;;;;;;;20.73;18.55;;;14.80;99.90;;;;;;7376660;19;20022;-62
2023/08/23 06:10:49;;;;;;;19.95;18.05;;;14.90;99.90;;;;;;7384754;19;20638;-61
2023/08/23 06:13:16;;;;;;;18.58;16.33;;;14.90;99.90;;;;;;7382260;19;20025;-61
2023/08/23 06:15:42;;;;;;;18.13;16.38;;;15.00;99.90;;;;;;7385828;19;20025;-67
2023/08/23 06:18:08;;;;;;;18.05;16.45;;;15.30;99.90;;;;;;7381754;19;20014;-68
2023/08/23 06:20:34;;;;;;;18.83;16.92;;;15.50;99.90;;;;;;7382926;19;20404;-62
2023/08/23 06:23:01;;;;;;;17.15;15.48;;;15.70;99.90;;;;;;7380906;19;20006;-61
2023/08/23 06:25:27;;;;;;;16.92;15.27;;;16.00;99.90;;;;;;7381361;19;20019;-62
2023/08/23 06:27:53;;;;;;;16.58;15.07;;;16.20;99.90;;;;;;7383583;19;20597;-62
2023/08/23 06:30:21;;;;;;;15.32;13.73;;;16.60;99.90;;;;;;7382545;19;20021;-67
2023/08/23 06:32:48;;;;;;;14.30;12.90;;;16.90;99.90;;;;;;7384184;19;20043;-62
2023/08/23 06:35:16;;;;;;;13.05;11.65;;;17.20;99.90;;;;;;7385098;19;20453;-63
2023/08/23 06:37:43;;;;;;;16.77;11.70;;;17.60;99.90;;;;;;7380405;19;20688;-62
2023/08/23 06:40:14;;;;;;;13.77;12.05;;;17.70;99.90;;;;;;7383727;19;20490;-63
2023/08/23 06:42:40;;;;;;;13.43;11.48;;;18.10;99.90;;;;;;7382960;19;20427;-61
2023/08/23 06:45:08;;;;;;;12.95;11.57;;;18.40;99.90;;;;;;7383461;19;20015;-62
2023/08/23 06:47:34;;;;;;;12.23;10.35;;;18.60;99.90;;;;;;7377267;19;20035;-62
2023/08/23 06:50:01;;;;;;;11.70;9.65;;;18.90;99.90;;;;;;7383508;19;20053;-61
2023/08/23 06:52:27;;;;;;;12.57;10.68;;;19.00;99.90;;;;;;7381974;19;20815;-62
2023/08/23 06:54:53;;;;;;;13.23;10.13;;;19.20;99.90;;;;;;7379382;19;20026;-62
2023/08/23 06:57:28;;;;;;;14.32;9.88;;;19.30;99.90;;;;;;7377723;19;20516;-63
2023/08/23 07:00:02;;;;;;;12.55;10.60;;;19.50;99.90;;;;;;7379983;19;20082;-62
2023/08/23 07:02:28;;;;;;;10.90;9.80;;;19.40;99.90;;;;;;7379182;19;20022;-62
2023/08/23 07:04:58;;;;;;;12.98;9.52;;;19.20;99.90;;;;;;7379722;19;20025;-62
2023/08/23 07:07:24;;;;;;;9.85;8.85;;;19.30;99.90;;;;;;7376119;19;20023;-61
2023/08/23 07:09:51;;;;;;;10.68;9.60;;;19.60;99.90;;;;;;7381156;19;20113;-62
2023/08/23 07:12:17;;;;;;;10.73;9.63;;;19.90;99.90;;;;;;7379437;19;20025;-62
2023/08/23 07:14:49;;;;;;;11.95;9.48;;;20.20;99.90;;;;;;7378987;19;20461;-61
2023/08/23 07:17:16;;;;;;;11.95;9.27;;;20.60;99.90;;;;;;7377437;19;20006;-61
2023/08/23 07:19:42;;;;;;;10.77;9.23;;;20.90;99.90;;;;;;7377096;19;20090;-61
2023/08/23 07:22:08;;;;;;;8.30;7.45;;;21.10;99.90;;;;;;7372962;19;20370;-61
2023/08/23 07:24:35;;;;;;;9.15;8.20;;;21.20;99.90;;;;;;7369975;19;20431;-61
2023/08/23 07:27:01;;;;;;;8.63;7.72;;;21.20;99.90;;;;;;7372516;19;20025;-62
2023/08/23 07:29:27;;;;;;;8.63;7.53;;;21.20;99.90;;;;;;7369007;19;20376;-62
2023/08/23 07:31:54;;;;;;;10.27;8.30;;;21.30;99.90;;;;;;7375770;19;20514;-62
2023/08/23 07:34:20;;;;;;;9.13;8.15;;;21.40;99.90;;;;;;7371405;19;20129;-60
2023/08/23 07:36:47;;;;;;;12.18;8.13;;;21.50;99.90;;;;;;7376271;19;20585;-61
2023/08/23 07:39:13;;;;;;;8.60;7.68;;;21.50;99.90;;;;;;7370649;19;20025;-61
2023/08/23 07:41:39;;;;;;;9.30;8.07;;;21.40;99.90;;;;;;7374453;19;20475;-63
2023/08/23 07:44:06;;;;;;;8.10;7.30;;;21.70;99.90;;;;;;7370399;19;20029;-62
2023/08/23 07:46:32;;;;;;;8.45;6.63;;;22.20;99.90;;;;;;7371365;19;20077;-62
2023/08/23 07:49:01;;;;;;;8.30;7.03;;;22.50;99.90;;;;;;7371334;19;20168;-62
2023/08/23 07:51:27;;;;;;;10.20;8.77;;;22.90;99.90;;;;;;7373049;19;20103;-62
2023/08/23 07:53:54;;;;;;;8.85;6.68;;;23.40;99.90;;;;;;7371463;19;20022;-64
2023/08/23 07:56:20;;;;;;;9.57;7.03;;;23.70;99.90;;;;;;7370755;19;20022;-63
2023/08/23 07:58:47;;;;;;;6.97;6.10;;;23.80;99.90;;;;;;7375523;19;20423;-63
2023/08/23 08:01:14;;;;;;;8.90;6.30;;;24.00;99.90;;;;;;7369589;19;20386;-63
2023/08/23 08:03:40;;;;;;;9.18;6.97;;;24.20;99.90;;;;;;7374479;19;20031;-67
2023/08/23 08:06:06;;;;;;;7.75;6.60;;;24.50;99.90;;;;;;7366959;19;20094;-66
2023/08/23 08:08:33;;;;;;;7.30;6.35;;;24.60;99.90;;;;;;7373171;19;20015;-68
2023/08/23 08:10:59;;;;;;;7.70;6.35;;;24.70;99.90;;;;;;7373405;19;20021;-68
2023/08/23 08:13:26;;;;;;;6.93;5.53;;;25.00;99.90;;;;;;7375359;19;20435;-65
2023/08/23 08:15:52;;;;;;;6.38;4.97;;;25.30;99.90;;;;;;7372081;19;20018;-68
2023/08/23 08:18:19;;;;;;;7.20;6.00;;;25.50;99.90;;;;;;7371538;19;20108;-68
2023/08/23 08:20:47;;;;;;;7.50;5.07;;;25.20;99.90;;;;;;7370064;19;20022;-66
2023/08/23 08:23:13;;;;;;;8.77;6.25;;;25.40;99.90;;;;;;7373947;19;20015;-67
2023/08/23 08:25:39;;;;;;;5.53;4.82;;;25.70;99.90;;;;;;7367788;19;20015;-67
2023/08/23 08:28:06;;;;;;;6.60;4.63;;;26.10;99.90;;;;;;7372127;19;20016;-67
2023/08/23 08:30:32;;;;;;;4.63;4.00;;;26.20;99.90;;;;;;7371551;19;20502;-67
2023/08/23 08:32:58;;;;;;;5.95;4.30;;;25.50;99.90;;;;;;7366292;19;20022;-67
2023/08/23 08:35:24;;;;;;;6.32;4.03;;;25.30;99.90;;;;;;7356387;19;20348;-67
2023/08/23 08:37:51;;;;;;;6.68;4.28;;;25.50;99.90;;;;;;7366856;19;20018;-67
2023/08/23 08:40:17;;;;;;;8.35;4.75;;;25.90;99.90;;;;;;7368909;19;20519;-67
2023/08/23 08:42:43;;;;;;;6.97;5.20;;;26.10;99.90;;;;;;7367365;19;20022;-68
2023/08/23 08:45:10;;;;;;;5.65;4.22;;;26.70;99.90;;;;;;7368581;19;20416;-68
2023/08/23 08:47:36;;;;;;;5.53;4.60;;;26.90;99.90;;;;;;7365872;19;20014;-68
2023/08/23 08:50:03;;;;;;;5.85;4.20;;;27.20;99.90;;;;;;7367656;19;20413;-68
2023/08/23 08:52:30;;;;;;;8.00;5.07;;;27.40;99.90;;;;;;7364815;19;20025;-66
2023/08/23 08:54:58;;;;;;;5.43;4.22;;;27.70;99.90;;;;;;7368261;19;20081;-68
2023/08/23 08:57:31;;;;;;;6.63;4.72;;;27.70;99.90;;;;;;7365442;19;20022;-68
2023/08/23 08:59:59;;;;;;;7.05;4.55;;;28.10;99.90;;;;;;7366519;19;20070;-67
2023/08/23 09:02:27;;;;;;;7.10;3.75;;;28.20;99.90;;;;;;7366454;19;20372;-68
2023/08/23 09:04:54;;;;;;;5.80;3.58;;;28.10;99.90;;;;;;7368185;19;20074;-67
2023/08/23 09:07:20;;;;;;;7.50;4.57;;;28.00;99.00;;;;;;7365763;19;20022;-67
2023/08/23 09:09:46;;;;;;;7.65;3.65;;;28.10;99.50;;;;;;7364945;19;20015;-67
2023/08/23 09:12:13;;;;;;;6.03;3.35;;;28.10;98.60;;;;;;7366174;19;20014;-67
2023/08/23 09:14:40;;;;;;;4.53;2.50;;;28.60;97.80;;;;;;7352974;19;20025;-67
2023/08/23 09:17:10;;;;;;;3.92;2.75;;;28.50;98.00;;;;;;7357965;19;20454;-62
2023/08/23 09:19:40;;;;;;;5.00;2.47;;;28.50;97.30;;;;;;7363957;19;20018;-61
2023/08/23 09:22:07;;;;;;;4.40;2.92;;;28.70;94.20;;;;;;7357923;19;20023;-64
2023/08/23 09:24:34;;;;;;;13.00;11.27;;;28.90;94.00;;;;;;7345627;19;20015;-61
2023/08/23 09:27:04;;;;;;;9.38;8.40;;;29.20;93.00;;;;;;7355122;19;20373;-64
2023/08/23 09:29:31;;;;;;;5.33;2.80;;;29.20;91.90;;;;;;7355662;19;20022;-63
2023/08/23 09:32:04;;;;;;;4.60;2.22;;;29.40;91.40;;;;;;7366357;19;20281;-63
2023/08/23 09:34:30;;;;;;;3.55;2.05;;;29.50;88.50;;;;;;7365359;19;20018;-64
2023/08/23 09:37:09;;;;;;;7.25;2.45;;;29.70;87.40;;;;;;7363281;19;20478;-65
2023/08/23 09:39:35;;;;;;;7.40;2.75;;;29.80;86.20;;;;;;7366691;19;20050;-66
2023/08/23 09:42:05;;;;;;;3.13;1.90;;;29.70;87.20;;;;;;7363851;19;20105;-61
2023/08/23 09:44:40;;;;;;;3.73;2.13;;;29.70;86.70;;;;;;7357402;19;20742;-63
2023/08/23 09:47:15;;;;;;;5.45;2.53;;;29.50;85.20;;;;;;7359837;19;20038;-70
2023/08/23 09:49:45;;;;;;;4.85;1.77;;;29.90;84.40;;;;;;7367570;19;20018;-70
2023/08/23 09:52:12;;;;;;;4.25;2.60;;;29.70;83.50;;;;;;7366115;19;20124;-69
2023/08/23 09:54:54;;;;;;;3.67;2.10;;;30.20;81.20;;;;;;7363446;19;20014;-68
2023/08/23 09:57:21;;;;;;;5.53;2.10;;;30.40;81.40;;;;;;7356682;19;20022;-68
2023/08/23 09:59:48;;;;;;;4.80;2.53;;;30.60;82.00;;;;;;7366287;19;20060;-69
2023/08/23 10:02:17;;;;;;;4.97;2.85;;;31.00;79.70;;;;;;7359820;19;20014;-69
2023/08/23 10:04:44;;;;;;;6.25;3.22;;;31.00;76.80;;;;;;7359040;19;20010;-69
2023/08/23 10:07:15;;;;;;;4.47;2.80;;;31.10;76.80;;;;;;7363628;19;20393;-70
2023/08/23 10:09:43;;;;;;;;;;;31.10;74.40;;;;;;7367295;19;20026;-69
2023/08/23 10:12:11;;;;;;;5.72;3.50;;;31.40;72.80;;;;;;7365147;19;19926;-69
2023/08/23 10:14:42;;;;;;;5.68;2.67;;;30.90;72.30;;;;;;7366739;19;20119;-69
2023/08/23 10:17:11;;;;;;;5.32;3.13;;;30.90;74.70;;;;;;7367405;19;20014;-69
2023/08/23 10:19:37;;;;;;;6.18;3.05;;;30.60;74.30;;;;;;7367676;19;20066;-70
2023/08/23 10:22:07;;;;;;;5.32;3.25;;;30.90;75.00;;;;;;7369694;19;20022;-70
2023/08/23 10:24:34;;;;;;;4.82;3.13;;;31.20;74.20;;;;;;7366689;19;20378;-71
2023/08/23 10:27:08;;;;;;;5.20;3.15;;;31.30;71.60;;;;;;7367395;19;20344;-68
2023/08/23 10:29:37;;;;;;;6.43;3.33;;;31.20;72.80;;;;;;7365097;19;20025;-69
2023/08/23 10:32:07;;;;;;;6.35;3.00;;;31.60;71.60;;;;;;7368560;19;20534;-69
2023/08/23 10:34:35;;;;;;;5.13;3.38;;;31.60;70.90;;;;;;7365825;19;20018;-72
2023/08/23 10:37:16;;;;;;;23.05;20.70;;;31.90;71.50;;;;;;7368624;19;20786;-70
2023/08/23 10:39:47;;;;;;;12.82;11.52;;;32.30;70.30;;;;;;7366630;19;20029;-70
2023/08/23 10:42:14;;;;;;;18.63;16.80;;;32.10;68.90;;;;;;7370202;19;20380;-71
2023/08/23 10:44:59;;;;;;;9.18;6.03;;;32.20;69.10;;;;;;7364713;19;20078;-70
2023/08/23 10:47:26;;;;;;;19.70;17.67;;;31.80;67.90;;;;;;7364996;19;20021;-69
2023/08/23 10:49:52;;;;;;;12.27;11.02;;;32.00;68.30;;;;;;7362067;19;20023;-64
2023/08/23 10:52:21;;;;;;;15.32;12.82;;;32.40;67.80;;;;;;7364700;19;20573;-63
2023/08/23 10:54:47;;;;;;;7.65;5.57;;;32.50;67.70;;;;;;7370984;19;20507;-63
2023/08/23 10:57:16;;;;;;;8.90;5.85;;;32.50;65.10;;;;;;7361703;19;20020;-65
2023/08/23 10:59:42;;;;;;;7.95;4.40;;;32.80;64.60;;;;;;7359486;19;20023;-68
2023/08/23 11:02:08;;;;;;;58.45;53.38;;;32.90;63.90;;;;;;7359639;19;20046;-67
2023/08/23 11:04:35;;;;;;;25.27;22.98;;;32.60;63.50;;;;;;7362371;19;20023;-65
2023/08/23 11:07:02;;;;;;;10.43;8.27;;;31.80;64.00;;;;;;7372070;19;20018;-63
2023/08/23 11:09:29;;;;;;;7.50;4.95;;;31.50;64.20;;;;;;7371512;19;20607;-65
2023/08/23 11:11:56;;;;;;;13.13;11.77;;;31.20;63.60;;;;;;7356482;19;20453;-65
2023/08/23 11:14:22;;;;;;;7.40;3.55;;;30.50;64.70;;;;;;7361599;19;20018;-65
2023/08/23 11:16:50;;;;;;;14.95;9.50;;;30.90;65.10;;;;;;7369516;19;20059;-71
2023/08/23 11:19:16;;;;;;;5.93;4.50;;;30.20;65.30;;;;;;7369380;19;20026;-71
2023/08/23 11:21:42;;;;;;;9.50;7.18;;;29.90;65.90;;;;;;7367478;19;20647;-70
2023/08/23 11:24:08;;;;;;;22.55;20.63;;;30.20;66.30;;;;;;7359882;19;20015;-64
2023/08/23 11:26:36;;;;;;;5.22;3.50;;;30.60;66.00;;;;;;7354267;19;20014;-64
2023/08/23 11:29:06;;;;;;;6.68;2.97;;;31.00;64.80;;;;;;7354287;19;20675;-64
2023/08/23 11:31:33;;;;;;;5.25;3.03;;;31.00;64.40;;;;;;7361261;19;20082;-64
2023/08/23 11:34:11;;;;;;;4.78;2.50;;;31.30;65.20;;;;;;7356866;19;20035;-65
2023/08/23 11:36:37;;;;;;;5.70;3.03;;;31.50;65.70;;;;;;7359616;19;20025;-65
2023/08/23 11:39:04;;;;;;;5.82;3.28;;;31.40;64.40;;;;;;7355982;19;20018;-64
2023/08/23 11:41:33;;;;;;;5.78;3.95;;;31.30;65.80;;;;;;7360293;19;20051;-64
2023/08/23 11:44:04;;;;;;;7.30;3.88;;;31.70;64.70;;;;;;7357616;19;20023;-64
2023/08/23 11:46:31;;;;;;;6.57;3.28;;;32.20;63.90;;;;;;7375945;19;20011;-64
2023/08/23 11:48:58;;;;;;;6.68;3.28;;;32.70;63.10;;;;;;7365341;19;20018;-66
2023/08/23 11:51:24;;;;;;;7.63;4.07;;;32.50;62.30;;;;;;7368987;19;20019;-66
2023/08/23 11:53:54;;;;;;;7.03;3.42;;;32.40;63.40;;;;;;7363464;19;20018;-65
2023/08/23 11:56:21;;;;;;;19.13;17.23;;;32.80;62.30;;;;;;7372714;19;20388;-70
2023/08/23 11:58:47;;;;;;;8.98;7.30;;;32.30;61.30;;;;;;7366501;19;20022;-68
2023/08/23 12:01:14;;;;;;;12.60;9.10;;;32.00;61.70;;;;;;7371313;19;20019;-69
2023/08/23 12:03:40;;;;;;;9.07;3.92;;;31.10;63.60;;;;;;7374707;19;20394;-68
2023/08/23 12:06:07;;;;;;;8.45;5.80;;;30.00;63.90;;;;;;7367211;19;20024;-68
2023/08/23 12:08:34;;;;;;;16.95;15.18;;;29.90;64.90;;;;;;7370774;19;20018;-69
2023/08/23 12:11:02;;;;;;;7.40;3.10;;;30.40;65.00;;;;;;7370070;19;20051;-69
2023/08/23 12:13:28;;;;;;;7.28;4.88;;;31.20;62.80;;;;;;7369498;19;20019;-68
2023/08/23 12:15:55;;;;;;;4.90;2.17;;;31.40;61.40;;;;;;7372942;19;20098;-69
2023/08/23 12:18:23;;;;;;;6.50;4.60;;;31.90;60.40;;;;;;7369105;19;20485;-69
2023/08/23 12:20:49;;;;;;;4.80;3.30;;;32.10;60.20;;;;;;7370869;19;20347;-64
2023/08/23 12:23:16;;;;;;;6.72;3.90;;;32.30;60.10;;;;;;7373025;19;20043;-63
2023/08/23 12:25:42;;;;;;;7.10;5.25;;;32.80;59.70;;;;;;7368309;19;20022;-63
2023/08/23 12:28:08;;;;;;;33.17;29.83;;;32.90;58.30;;;;;;7366751;19;20043;-63
2023/08/23 12:30:35;;;;;;;11.85;10.63;;;32.60;58.40;;;;;;7369536;19;20019;-67
2023/08/23 12:33:01;;;;;;;9.85;8.30;;;33.00;57.80;;;;;;7370371;19;20123;-63
2023/08/23 12:35:27;;;;;;;8.98;7.22;;;32.60;56.80;;;;;;7370284;19;20019;-63
2023/08/23 12:37:53;;;;;;;7.82;5.30;;;32.70;57.00;;;;;;7371802;19;20027;-62
2023/08/23 12:40:20;;;;;;;7.70;5.80;;;32.40;57.50;;;;;;7363426;19;20041;-63